松山國際航空站 - ATIS

METAR RCSS 230030Z 29003KT 250V360 9999 FEW020 SCT120 BKN220 32/26 Q1007 NOSIG RMK A2976=

站台狀態:Online
最後更新:2018-06-23 08:45:01